Time;durP1;ratioP1;P1;durP2;ratioP2;P2;SDS_P1;SDS_P2;PMS_P1;PMS_P2;Temp;Humidity;BMP_temperature;BMP_pressure;BME280_temperature;BME280_humidity;BME280_pressure;Samples;Min_cycle;Max_cycle;Signal;HPM_P1;HPM_P2
2020/12/07 00:00:32;;;;;;;4.93;0.90;;;;;;;;;;5052266;28;20048;-53
2020/12/07 00:02:58;;;;;;;3.60;0.77;;;;;;;;;;5034719;28;20045;-56
2020/12/07 00:05:24;;;;;;;2.85;0.65;;;;;;;;;;5053236;28;20604;-55
2020/12/07 00:07:50;;;;;;;3.95;0.80;;;;;;;;;;5052753;28;20041;-51
2020/12/07 00:10:16;;;;;;;5.45;1.02;;;;;;;;;;5052513;28;20045;-48
2020/12/07 00:12:45;;;;;;;4.43;0.90;;;;;;;;;;5056268;28;20045;-56
2020/12/07 00:15:11;;;;;;;5.18;1.50;;;;;;;;;;5053347;28;20112;-54
2020/12/07 00:17:37;;;;;;;3.90;1.50;;;;;;;;;;5051696;28;20045;-51
2020/12/07 00:20:03;;;;;;;8.98;1.30;;;;;;;;;;5052992;28;20071;-55
2020/12/07 00:22:30;;;;;;;4.35;1.25;;;;;;;;;;5052310;28;20043;-52
2020/12/07 00:24:57;;;;;;;7.03;1.20;;;;;;;;;;5053775;28;20037;-54
2020/12/07 00:27:23;;;;;;;3.92;0.98;;;;;;;;;;5053281;28;20040;-51
2020/12/07 00:29:52;;;;;;;6.68;1.15;;;;;;;;;;5052106;28;22831;-55
2020/12/07 00:32:19;;;;;;;6.72;1.15;;;;;;;;;;5053321;28;20044;-54
2020/12/07 00:34:45;;;;;;;5.80;1.30;;;;;;;;;;5053178;28;20068;-51
2020/12/07 00:37:11;;;;;;;7.35;1.02;;;;;;;;;;5053043;28;20697;-52
2020/12/07 00:39:37;;;;;;;4.35;1.15;;;;;;;;;;5051601;28;20167;-55
2020/12/07 00:42:04;;;;;;;6.50;1.20;;;;;;;;;;5052947;28;20045;-53
2020/12/07 00:44:30;;;;;;;6.00;1.90;;;;;;;;;;5051645;28;20049;-52
2020/12/07 00:47:05;;;;;;;10.80;1.95;;;;;;;;;;5051515;28;20033;-54
2020/12/07 00:49:32;;;;;;;9.75;2.17;;;;;;;;;;5043401;28;20040;-53
2020/12/07 00:51:58;;;;;;;16.25;3.25;;;;;;;;;;5052942;28;20041;-54
2020/12/07 00:54:24;;;;;;;5.65;2.00;;;;;;;;;;5051871;28;20037;-52
2020/12/07 00:56:53;;;;;;;8.35;1.63;;;;;;;;;;5050753;28;20045;-53
2020/12/07 00:59:19;;;;;;;5.65;1.23;;;;;;;;;;5050113;28;20108;-51
2020/12/07 01:01:45;;;;;;;7.53;1.20;;;;;;;;;;5053170;28;20060;-51
2020/12/07 01:04:11;;;;;;;4.97;1.45;;;;;;;;;;5051456;28;20037;-53
2020/12/07 01:06:37;;;;;;;6.75;1.73;;;;;;;;;;5051847;28;20037;-53
2020/12/07 01:09:03;;;;;;;5.82;1.45;;;;;;;;;;5052747;28;20037;-50
2020/12/07 01:11:29;;;;;;;7.60;1.20;;;;;;;;;;5052187;28;20067;-50
2020/12/07 01:13:55;;;;;;;5.95;1.52;;;;;;;;;;5052529;28;20037;-55
2020/12/07 01:16:21;;;;;;;8.88;2.55;;;;;;;;;;5052478;28;20064;-52
2020/12/07 01:18:47;;;;;;;9.80;3.35;;;;;;;;;;5051958;28;20140;-54
2020/12/07 01:21:14;;;;;;;6.30;1.90;;;;;;;;;;5052572;28;20041;-53
2020/12/07 01:23:41;;;;;;;13.48;1.80;;;;;;;;;;5051546;28;20048;-52
2020/12/07 01:26:09;;;;;;;6.20;1.38;;;;;;;;;;5052328;28;20343;-54
2020/12/07 01:28:35;;;;;;;10.73;4.30;;;;;;;;;;5051218;28;20112;-52
2020/12/07 01:31:02;;;;;;;25.95;9.48;;;;;;;;;;5052377;28;20072;-50
2020/12/07 01:33:27;;;;;;;30.25;10.65;;;;;;;;;;5050913;28;20036;-55
2020/12/07 01:35:53;;;;;;;12.15;3.75;;;;;;;;;;5052030;28;20922;-51
2020/12/07 01:38:19;;;;;;;8.15;2.22;;;;;;;;;;5051760;28;20059;-52
2020/12/07 01:40:45;;;;;;;7.95;1.40;;;;;;;;;;5051516;28;20045;-55
2020/12/07 01:43:11;;;;;;;3.42;1.50;;;;;;;;;;5051958;28;20041;-54
2020/12/07 01:45:37;;;;;;;3.83;1.08;;;;;;;;;;5050880;28;21029;-54
2020/12/07 01:48:03;;;;;;;4.45;0.85;;;;;;;;;;5052054;28;20083;-55
2020/12/07 01:50:29;;;;;;;2.17;0.77;;;;;;;;;;5051148;28;20037;-54
2020/12/07 01:52:55;;;;;;;2.85;0.70;;;;;;;;;;5051450;28;20048;-52
2020/12/07 01:55:21;;;;;;;3.15;0.73;;;;;;;;;;5051675;28;20044;-55
2020/12/07 01:57:47;;;;;;;4.10;0.70;;;;;;;;;;5051983;28;21099;-52
2020/12/07 02:00:13;;;;;;;4.97;0.80;;;;;;;;;;5050869;28;20572;-55
2020/12/07 02:02:39;;;;;;;3.70;0.80;;;;;;;;;;5049852;28;20076;-55
2020/12/07 02:05:04;;;;;;;2.78;0.85;;;;;;;;;;5052665;28;20041;-52
2020/12/07 02:07:30;;;;;;;2.72;0.70;;;;;;;;;;5050930;28;20094;-57
2020/12/07 02:09:56;;;;;;;6.22;0.80;;;;;;;;;;5050919;28;20071;-55
2020/12/07 02:12:22;;;;;;;5.72;0.90;;;;;;;;;;5050308;28;20041;-52
2020/12/07 02:14:48;;;;;;;3.78;0.90;;;;;;;;;;5051386;28;20037;-53
2020/12/07 02:17:14;;;;;;;4.75;0.73;;;;;;;;;;5052036;28;20048;-54
2020/12/07 02:19:40;;;;;;;4.22;0.90;;;;;;;;;;5048940;28;20045;-54
2020/12/07 02:22:05;;;;;;;4.30;0.70;;;;;;;;;;5050591;28;20067;-53
2020/12/07 02:24:31;;;;;;;4.97;0.85;;;;;;;;;;5048314;28;20033;-54
2020/12/07 02:26:57;;;;;;;2.33;0.60;;;;;;;;;;5049971;28;20033;-53
2020/12/07 02:29:32;;;;;;;4.68;0.70;;;;;;;;;;5047891;28;20045;-55
2020/12/07 02:32:18;;;;;;;2.25;0.70;;;;;;;;;;5051397;28;20087;-51
2020/12/07 02:34:44;;;;;;;3.65;0.80;;;;;;;;;;5049458;28;20037;-52
2020/12/07 02:37:10;;;;;;;2.53;0.73;;;;;;;;;;5050125;28;20103;-55
2020/12/07 02:39:36;;;;;;;2.58;0.60;;;;;;;;;;5049122;28;20048;-51
2020/12/07 02:42:03;;;;;;;2.25;0.70;;;;;;;;;;5049652;28;20700;-52
2020/12/07 02:44:29;;;;;;;6.22;0.90;;;;;;;;;;5046402;28;20813;-52
2020/12/07 02:46:56;;;;;;;3.15;0.75;;;;;;;;;;5045149;28;20104;-57
2020/12/07 02:49:22;;;;;;;1.95;0.63;;;;;;;;;;5063784;28;20033;-53
2020/12/07 02:51:48;;;;;;;5.00;0.75;;;;;;;;;;5049421;28;20048;-56
2020/12/07 02:54:14;;;;;;;5.05;0.60;;;;;;;;;;5048814;28;20114;-55
2020/12/07 02:56:40;;;;;;;5.07;0.70;;;;;;;;;;5049740;28;20064;-57
2020/12/07 02:59:05;;;;;;;4.50;0.70;;;;;;;;;;5049699;28;20040;-57
2020/12/07 03:01:31;;;;;;;1.90;0.60;;;;;;;;;;5047465;28;20041;-56
2020/12/07 03:03:57;;;;;;;3.40;0.70;;;;;;;;;;5049724;28;20048;-56
2020/12/07 03:06:23;;;;;;;2.28;0.60;;;;;;;;;;5049070;28;20053;-56
2020/12/07 03:08:49;;;;;;;5.60;0.73;;;;;;;;;;5050029;28;20039;-58
2020/12/07 03:11:15;;;;;;;6.38;0.77;;;;;;;;;;5050212;28;20481;-58
2020/12/07 03:13:40;;;;;;;4.38;0.88;;;;;;;;;;5049286;28;20041;-54
2020/12/07 03:16:06;;;;;;;1.77;0.60;;;;;;;;;;5049476;28;20052;-55
2020/12/07 03:18:32;;;;;;;1.17;0.43;;;;;;;;;;5048718;28;20041;-55
2020/12/07 03:20:58;;;;;;;1.98;0.60;;;;;;;;;;5049020;28;20061;-56
2020/12/07 03:23:24;;;;;;;4.32;0.80;;;;;;;;;;5051006;28;20040;-57
2020/12/07 03:25:50;;;;;;;2.55;0.70;;;;;;;;;;5052227;28;21088;-57
2020/12/07 03:28:16;;;;;;;4.18;0.68;;;;;;;;;;5051325;28;20037;-56
2020/12/07 03:30:41;;;;;;;3.65;0.63;;;;;;;;;;5052877;28;20093;-56
2020/12/07 03:33:07;;;;;;;2.42;0.60;;;;;;;;;;5053453;28;20122;-57
2020/12/07 03:35:33;;;;;;;2.47;0.60;;;;;;;;;;5052107;28;20060;-57
2020/12/07 03:37:59;;;;;;;2.28;0.60;;;;;;;;;;5053537;28;20060;-56
2020/12/07 03:40:25;;;;;;;3.90;0.60;;;;;;;;;;5052138;28;20073;-57
2020/12/07 03:42:51;;;;;;;3.70;0.70;;;;;;;;;;5052639;28;20110;-56
2020/12/07 03:45:16;;;;;;;3.45;0.70;;;;;;;;;;5053440;28;20033;-55
2020/12/07 03:47:42;;;;;;;3.15;0.70;;;;;;;;;;5052117;28;20068;-57
2020/12/07 03:50:08;;;;;;;1.38;0.50;;;;;;;;;;5052528;28;20029;-56
2020/12/07 03:52:34;;;;;;;1.77;0.63;;;;;;;;;;5051418;28;20037;-56
2020/12/07 03:55:00;;;;;;;2.17;0.50;;;;;;;;;;5053715;28;20086;-56
2020/12/07 03:57:26;;;;;;;2.15;0.60;;;;;;;;;;5052313;28;20555;-56
2020/12/07 03:59:52;;;;;;;3.08;0.73;;;;;;;;;;5052159;28;20045;-53
2020/12/07 04:02:17;;;;;;;2.25;0.52;;;;;;;;;;5050086;28;20037;-57
2020/12/07 04:04:51;;;;;;;3.42;0.60;;;;;;;;;;5050347;28;20741;-56
2020/12/07 04:07:17;;;;;;;1.77;0.50;;;;;;;;;;5051600;28;20131;-56
2020/12/07 04:09:43;;;;;;;3.88;0.68;;;;;;;;;;5051821;28;20049;-55
2020/12/07 04:12:09;;;;;;;4.05;0.65;;;;;;;;;;5052872;28;20058;-57
2020/12/07 04:14:35;;;;;;;1.92;0.52;;;;;;;;;;5052483;28;20106;-57
2020/12/07 04:17:01;;;;;;;3.78;0.60;;;;;;;;;;5051954;28;20078;-57
2020/12/07 04:19:27;;;;;;;1.88;0.50;;;;;;;;;;5051479;28;20497;-57
2020/12/07 04:21:52;;;;;;;4.68;0.80;;;;;;;;;;5053097;28;20063;-57
2020/12/07 04:24:18;;;;;;;1.67;0.50;;;;;;;;;;5051955;28;20029;-57
2020/12/07 04:26:44;;;;;;;2.28;0.60;;;;;;;;;;5052458;28;20045;-54
2020/12/07 04:29:10;;;;;;;2.50;0.70;;;;;;;;;;5052753;28;20063;-56
2020/12/07 04:31:36;;;;;;;1.95;0.60;;;;;;;;;;5052392;28;20056;-57
2020/12/07 04:34:02;;;;;;;1.67;0.60;;;;;;;;;;5052664;28;20106;-57
2020/12/07 04:36:28;;;;;;;2.60;0.55;;;;;;;;;;5052009;28;20048;-57
2020/12/07 04:38:53;;;;;;;2.85;0.60;;;;;;;;;;5052943;28;20033;-57
2020/12/07 04:41:19;;;;;;;3.08;0.60;;;;;;;;;;5051884;28;20044;-59
2020/12/07 04:43:47;;;;;;;1.75;0.50;;;;;;;;;;5052269;28;20105;-56
2020/12/07 04:46:13;;;;;;;1.80;0.50;;;;;;;;;;5053454;28;20061;-55
2020/12/07 04:48:41;;;;;;;2.03;0.60;;;;;;;;;;5051811;28;20037;-54
2020/12/07 04:51:07;;;;;;;1.55;0.57;;;;;;;;;;5052676;28;20033;-57
2020/12/07 04:53:34;;;;;;;5.43;0.50;;;;;;;;;;5049176;28;20056;-57
2020/12/07 04:56:01;;;;;;;1.40;0.50;;;;;;;;;;5052051;28;20063;-57
2020/12/07 04:58:27;;;;;;;1.67;0.50;;;;;;;;;;5052111;28;20032;-58
2020/12/07 05:00:53;;;;;;;2.95;0.60;;;;;;;;;;5052863;28;20040;-57
2020/12/07 05:03:19;;;;;;;2.60;0.70;;;;;;;;;;5051844;28;20040;-57
2020/12/07 05:05:45;;;;;;;4.03;1.67;;;;;;;;;;5052953;28;20040;-57
2020/12/07 05:08:12;;;;;;;3.83;1.65;;;;;;;;;;5051972;28;20874;-56
2020/12/07 05:10:41;;;;;;;2.50;0.60;;;;;;;;;;5051861;28;20067;-56
2020/12/07 05:15:51;;;;;;;1.90;0.50;;;;;;;;;;5051519;28;20063;-55
2020/12/07 05:18:16;;;;;;;3.40;0.70;;;;;;;;;;5052320;28;20108;-57
2020/12/07 05:20:42;;;;;;;2.40;0.80;;;;;;;;;;5050707;28;20057;-55
2020/12/07 05:23:08;;;;;;;1.88;0.60;;;;;;;;;;5051508;28;20041;-57
2020/12/07 05:25:34;;;;;;;2.20;0.70;;;;;;;;;;5051206;28;20115;-57
2020/12/07 05:28:01;;;;;;;2.25;0.77;;;;;;;;;;5052069;28;20116;-57
2020/12/07 05:30:36;;;;;;;2.35;0.60;;;;;;;;;;5050974;28;20520;-57
2020/12/07 05:33:02;;;;;;;1.65;0.50;;;;;;;;;;5051031;28;20104;-56
2020/12/07 05:35:28;;;;;;;3.55;0.80;;;;;;;;;;5050845;28;20095;-55
2020/12/07 05:37:54;;;;;;;3.13;0.80;;;;;;;;;;5051130;28;20041;-57
2020/12/07 05:40:20;;;;;;;3.53;0.90;;;;;;;;;;5050500;28;20045;-56
2020/12/07 05:42:46;;;;;;;3.15;0.70;;;;;;;;;;5051553;28;20122;-56
2020/12/07 05:45:12;;;;;;;3.42;0.70;;;;;;;;;;5051332;28;20036;-56
2020/12/07 05:47:39;;;;;;;2.53;0.60;;;;;;;;;;5050355;28;20049;-55
2020/12/07 05:50:08;;;;;;;2.22;0.70;;;;;;;;;;5050931;28;20120;-54
2020/12/07 05:52:46;;;;;;;5.85;0.90;;;;;;;;;;5047334;28;20159;-56
2020/12/07 05:55:16;;;;;;;3.13;0.80;;;;;;;;;;5050542;28;20178;-56
2020/12/07 05:57:50;;;;;;;2.60;0.70;;;;;;;;;;5049376;28;20033;-57
2020/12/07 06:00:20;;;;;;;4.97;0.98;;;;;;;;;;5050366;28;20048;-57
2020/12/07 06:02:49;;;;;;;2.92;0.80;;;;;;;;;;5051116;28;20096;-57
2020/12/07 06:05:15;;;;;;;3.30;0.95;;;;;;;;;;5051014;28;20052;-56
2020/12/07 06:07:43;;;;;;;4.55;0.80;;;;;;;;;;5050823;28;20408;-56
2020/12/07 06:10:10;;;;;;;3.88;1.00;;;;;;;;;;5051825;28;20765;-56
2020/12/07 06:12:39;;;;;;;2.78;0.90;;;;;;;;;;5048725;28;20083;-55
2020/12/07 06:15:05;;;;;;;3.42;0.70;;;;;;;;;;5051217;28;20035;-55
2020/12/07 06:17:31;;;;;;;4.18;0.80;;;;;;;;;;5051106;28;20104;-56
2020/12/07 06:19:57;;;;;;;4.97;0.70;;;;;;;;;;5053988;28;20115;-57
2020/12/07 06:22:23;;;;;;;1.65;0.50;;;;;;;;;;5050286;28;20060;-56
2020/12/07 06:24:50;;;;;;;2.70;0.70;;;;;;;;;;5050154;28;20051;-58
2020/12/07 06:27:17;;;;;;;1.67;0.60;;;;;;;;;;5051399;28;20035;-57
2020/12/07 06:29:58;;;;;;;2.55;0.70;;;;;;;;;;5049882;28;20558;-58
2020/12/07 06:32:42;;;;;;;2.60;0.68;;;;;;;;;;5049373;28;20053;-57
2020/12/07 06:35:09;;;;;;;3.15;0.60;;;;;;;;;;5050014;28;20211;-58
2020/12/07 06:37:35;;;;;;;3.28;0.60;;;;;;;;;;5048824;28;20163;-57
2020/12/07 06:40:01;;;;;;;4.35;0.60;;;;;;;;;;5051031;28;20655;-58
2020/12/07 06:42:27;;;;;;;3.25;0.70;;;;;;;;;;5049090;28;20049;-58
2020/12/07 06:44:53;;;;;;;2.38;0.70;;;;;;;;;;5051358;28;20052;-57
2020/12/07 06:47:24;;;;;;;1.48;0.52;;;;;;;;;;5049605;28;20144;-58
2020/12/07 06:49:54;;;;;;;2.97;0.70;;;;;;;;;;5050620;28;20064;-58
2020/12/07 06:52:22;;;;;;;3.72;0.60;;;;;;;;;;5049838;28;20037;-57
2020/12/07 06:57:51;;;;;;;1.73;0.50;;;;;;;;;;5044228;28;20061;-58
2020/12/07 07:00:20;;;;;;;2.15;0.60;;;;;;;;;;5054839;28;20109;-58
2020/12/07 07:02:47;;;;;;;3.53;0.63;;;;;;;;;;5053658;28;20056;-57
2020/12/07 07:05:15;;;;;;;2.75;0.50;;;;;;;;;;5054565;28;20465;-56
2020/12/07 07:07:41;;;;;;;1.98;0.60;;;;;;;;;;5053905;28;20041;-55
2020/12/07 07:10:08;;;;;;;2.03;0.70;;;;;;;;;;5053895;28;20064;-55
2020/12/07 07:12:35;;;;;;;1.95;0.55;;;;;;;;;;5053012;28;20099;-57
2020/12/07 07:15:01;;;;;;;3.00;0.50;;;;;;;;;;5054377;28;20052;-56
2020/12/07 07:17:28;;;;;;;4.43;0.68;;;;;;;;;;5053421;28;20033;-57
2020/12/07 07:19:54;;;;;;;6.45;0.60;;;;;;;;;;5053865;28;20509;-57
2020/12/07 07:22:20;;;;;;;1.70;0.50;;;;;;;;;;5052879;28;20047;-57
2020/12/07 07:29:57;;;;;;;2.30;0.70;;;;;;;;;;5052539;28;20055;-57
2020/12/07 07:32:23;;;;;;;1.98;0.60;;;;;;;;;;5052586;28;20880;-54
2020/12/07 07:34:49;;;;;;;2.55;0.70;;;;;;;;;;5054310;28;20355;-57
2020/12/07 07:37:16;;;;;;;2.25;0.60;;;;;;;;;;5053789;28;20053;-57
2020/12/07 07:39:42;;;;;;;2.97;0.68;;;;;;;;;;5053460;28;21001;-56
2020/12/07 07:42:12;;;;;;;3.50;0.63;;;;;;;;;;5053368;28;20041;-57
2020/12/07 07:44:39;;;;;;;2.08;0.60;;;;;;;;;;5052760;28;20033;-57
2020/12/07 07:47:09;;;;;;;3.50;0.70;;;;;;;;;;5054353;28;20055;-56
2020/12/07 08:01:49;;;;;;;1.88;0.60;;;;;;;;;;5010261;28;20088;-55
2020/12/07 08:16:58;;;;;;;3.70;0.70;;;;;;;;;;5052176;28;20075;-57
2020/12/07 08:19:27;;;;;;;1.45;0.50;;;;;;;;;;5052481;28;20063;-57
2020/12/07 08:21:53;;;;;;;4.85;0.60;;;;;;;;;;5052178;28;20287;-56
2020/12/07 08:24:19;;;;;;;2.35;0.70;;;;;;;;;;5053288;28;20063;-57
2020/12/07 08:26:45;;;;;;;1.92;0.63;;;;;;;;;;5052477;28;20041;-57
2020/12/07 08:29:11;;;;;;;3.60;0.50;;;;;;;;;;5053200;28;20063;-56
2020/12/07 08:31:37;;;;;;;2.20;0.65;;;;;;;;;;5052659;28;20067;-57
2020/12/07 08:34:08;;;;;;;2.13;0.57;;;;;;;;;;5053887;28;20182;-55
2020/12/07 08:36:34;;;;;;;3.58;0.70;;;;;;;;;;5052632;28;20060;-56
2020/12/07 08:39:00;;;;;;;1.83;0.60;;;;;;;;;;5052877;28;20033;-56
2020/12/07 08:41:27;;;;;;;3.13;0.70;;;;;;;;;;5052429;28;20041;-55
2020/12/07 08:44:00;;;;;;;2.58;0.70;;;;;;;;;;5052055;28;20037;-55
2020/12/07 08:46:27;;;;;;;2.40;0.73;;;;;;;;;;5051925;28;22496;-55
2020/12/07 08:48:53;;;;;;;2.15;0.60;;;;;;;;;;5052737;28;20044;-56
2020/12/07 08:51:23;;;;;;;1.98;0.60;;;;;;;;;;5052103;28;20405;-56
2020/12/07 08:53:49;;;;;;;2.08;0.60;;;;;;;;;;5052009;28;20041;-56
2020/12/07 08:56:15;;;;;;;4.03;0.63;;;;;;;;;;5051590;28;20052;-56
2020/12/07 08:58:42;;;;;;;3.85;0.70;;;;;;;;;;5051540;28;20037;-57
2020/12/07 09:01:08;;;;;;;2.78;0.60;;;;;;;;;;5053288;28;20044;-55
2020/12/07 09:03:35;;;;;;;3.78;0.60;;;;;;;;;;5051667;28;20041;-57
2020/12/07 09:06:01;;;;;;;1.88;0.50;;;;;;;;;;5052685;28;20041;-55
2020/12/07 09:08:27;;;;;;;4.00;0.80;;;;;;;;;;5050882;28;20053;-55
2020/12/07 09:10:53;;;;;;;3.00;0.60;;;;;;;;;;5052964;28;20071;-56
2020/12/07 09:13:19;;;;;;;2.63;0.60;;;;;;;;;;5049648;28;22291;-55
2020/12/07 09:15:45;;;;;;;2.00;0.60;;;;;;;;;;5051828;28;20131;-56
2020/12/07 09:18:13;;;;;;;2.38;0.60;;;;;;;;;;5051392;28;20036;-56
2020/12/07 09:20:39;;;;;;;2.08;0.50;;;;;;;;;;5049676;28;20047;-57
2020/12/07 09:23:05;;;;;;;2.30;0.60;;;;;;;;;;5051809;28;20152;-56
2020/12/07 09:25:31;;;;;;;1.63;0.50;;;;;;;;;;5051218;28;20128;-56
2020/12/07 09:27:57;;;;;;;2.35;0.50;;;;;;;;;;5051623;28;20084;-54
2020/12/07 09:30:23;;;;;;;1.98;0.50;;;;;;;;;;5049611;28;20041;-57
2020/12/07 09:32:48;;;;;;;1.40;0.50;;;;;;;;;;5050838;28;20033;-57
2020/12/07 09:35:14;;;;;;;1.58;0.50;;;;;;;;;;5051998;28;20049;-56
2020/12/07 09:37:40;;;;;;;2.63;0.52;;;;;;;;;;5050505;28;20601;-57
2020/12/07 09:40:07;;;;;;;2.72;0.40;;;;;;;;;;5050664;28;20405;-56
2020/12/07 09:42:33;;;;;;;1.80;0.47;;;;;;;;;;5050865;28;20037;-57
2020/12/07 09:44:59;;;;;;;1.75;0.50;;;;;;;;;;5051670;28;20067;-57
2020/12/07 09:47:25;;;;;;;2.88;0.50;;;;;;;;;;5050590;28;20037;-57
2020/12/07 09:49:51;;;;;;;1.83;0.57;;;;;;;;;;5050043;28;20060;-57
2020/12/07 09:52:17;;;;;;;2.08;0.50;;;;;;;;;;5050876;28;20052;-57
2020/12/07 09:54:43;;;;;;;2.45;0.45;;;;;;;;;;5051232;28;20041;-54
2020/12/07 09:57:09;;;;;;;1.40;0.40;;;;;;;;;;5051145;28;20409;-57
2020/12/07 09:59:36;;;;;;;2.17;0.52;;;;;;;;;;5048387;28;20045;-55
2020/12/07 10:02:02;;;;;;;4.55;0.50;;;;;;;;;;5050753;28;20045;-57
2020/12/07 10:04:28;;;;;;;1.60;0.50;;;;;;;;;;5050355;28;20146;-53
2020/12/07 10:06:54;;;;;;;1.55;0.50;;;;;;;;;;5051517;28;20067;-56
2020/12/07 10:09:20;;;;;;;6.47;0.60;;;;;;;;;;5049569;28;20037;-58
2020/12/07 10:11:47;;;;;;;1.42;0.50;;;;;;;;;;5051675;28;20068;-56
2020/12/07 10:14:13;;;;;;;1.38;0.40;;;;;;;;;;5051775;28;20077;-56
2020/12/07 10:16:42;;;;;;;1.75;0.45;;;;;;;;;;5050813;28;20051;-56
2020/12/07 10:19:08;;;;;;;5.80;0.70;;;;;;;;;;5050022;28;20037;-56
2020/12/07 10:21:34;;;;;;;1.23;0.40;;;;;;;;;;5048930;28;20067;-55
2020/12/07 10:24:00;;;;;;;1.58;0.50;;;;;;;;;;5051461;28;20028;-54
2020/12/07 10:26:26;;;;;;;1.08;0.50;;;;;;;;;;5051271;28;20048;-55
2020/12/07 10:28:52;;;;;;;2.35;0.60;;;;;;;;;;5050420;28;20036;-57
2020/12/07 10:31:19;;;;;;;2.10;0.52;;;;;;;;;;5050376;28;20129;-60
2020/12/07 10:33:45;;;;;;;2.22;0.40;;;;;;;;;;5051566;28;20051;-57
2020/12/07 10:36:11;;;;;;;2.00;0.50;;;;;;;;;;5050653;28;20048;-57
2020/12/07 10:38:37;;;;;;;1.95;0.60;;;;;;;;;;5049649;28;20075;-56
2020/12/07 10:41:03;;;;;;;1.17;0.50;;;;;;;;;;5051352;28;20061;-57
2020/12/07 10:43:30;;;;;;;3.40;0.60;;;;;;;;;;5049993;28;20109;-57
2020/12/07 10:45:56;;;;;;;2.70;0.50;;;;;;;;;;5051049;28;20037;-56
2020/12/07 10:48:22;;;;;;;2.85;0.50;;;;;;;;;;5051065;28;20428;-55
2020/12/07 10:50:47;;;;;;;5.60;0.50;;;;;;;;;;5048652;28;20041;-57
2020/12/07 10:53:13;;;;;;;1.45;0.50;;;;;;;;;;5050645;28;20094;-56
2020/12/07 10:55:42;;;;;;;1.92;0.40;;;;;;;;;;5050202;28;20040;-57
2020/12/07 10:58:08;;;;;;;3.38;0.65;;;;;;;;;;5050709;28;20148;-57
2020/12/07 11:00:36;;;;;;;1.20;0.40;;;;;;;;;;5049517;28;20490;-57
2020/12/07 11:03:03;;;;;;;5.93;0.50;;;;;;;;;;5046782;28;20170;-55
2020/12/07 11:05:29;;;;;;;3.65;0.60;;;;;;;;;;5046852;28;20104;-57
2020/12/07 11:07:55;;;;;;;3.38;0.60;;;;;;;;;;5050250;28;20063;-56
2020/12/07 11:10:21;;;;;;;3.30;0.60;;;;;;;;;;5049454;28;20063;-57
2020/12/07 11:12:54;;;;;;;3.67;0.50;;;;;;;;;;5049682;28;20047;-57
2020/12/07 11:15:20;;;;;;;2.10;0.50;;;;;;;;;;5050115;28;20072;-55
2020/12/07 11:17:46;;;;;;;3.65;0.52;;;;;;;;;;5052079;28;20074;-56
2020/12/07 11:20:12;;;;;;;2.78;0.55;;;;;;;;;;5049500;28;20052;-56
2020/12/07 11:22:38;;;;;;;2.15;0.50;;;;;;;;;;5046427;28;20146;-56
2020/12/07 11:25:03;;;;;;;3.38;0.60;;;;;;;;;;5050631;28;20049;-56
2020/12/07 11:27:29;;;;;;;2.80;0.70;;;;;;;;;;5049555;28;20045;-54
2020/12/07 11:29:55;;;;;;;5.43;0.80;;;;;;;;;;5050255;28;22964;-53
2020/12/07 11:32:21;;;;;;;3.33;0.70;;;;;;;;;;5049109;28;20103;-55
2020/12/07 11:34:47;;;;;;;3.83;0.60;;;;;;;;;;5050995;28;20160;-56
2020/12/07 11:37:13;;;;;;;3.97;0.70;;;;;;;;;;5050725;28;20374;-54
2020/12/07 11:39:54;;;;;;;3.45;0.60;;;;;;;;;;5048467;28;20040;-55
2020/12/07 11:45:12;;;;;;;3.00;0.47;;;;;;;;;;5044607;28;21617;-56
2020/12/07 11:47:38;;;;;;;2.92;0.50;;;;;;;;;;5053698;28;20117;-53
2020/12/07 11:50:05;;;;;;;2.60;0.60;;;;;;;;;;5053366;28;20211;-56
2020/12/07 11:52:31;;;;;;;1.63;0.50;;;;;;;;;;5052803;28;20095;-56
2020/12/07 11:54:57;;;;;;;1.83;0.50;;;;;;;;;;5054280;28;20244;-56
2020/12/07 11:57:23;;;;;;;1.58;0.47;;;;;;;;;;5053019;28;20053;-56
2020/12/07 11:59:49;;;;;;;2.88;0.40;;;;;;;;;;5052028;28;20048;-56
2020/12/07 12:02:15;;;;;;;1.38;0.50;;;;;;;;;;5052619;28;20037;-55
2020/12/07 12:04:40;;;;;;;1.65;0.50;;;;;;;;;;5067630;28;20044;-54
2020/12/07 12:07:07;;;;;;;1.55;0.50;;;;;;;;;;5053386;28;20819;-55
2020/12/07 12:09:36;;;;;;;1.30;0.50;;;;;;;;;;5050823;28;20056;-56
2020/12/07 12:12:03;;;;;;;2.20;0.50;;;;;;;;;;5053488;28;20484;-54
2020/12/07 12:14:29;;;;;;;4.38;0.50;;;;;;;;;;5051665;28;20029;-55
2020/12/07 12:16:56;;;;;;;2.08;0.40;;;;;;;;;;5053468;28;20056;-56
2020/12/07 12:19:22;;;;;;;3.88;0.50;;;;;;;;;;5050874;28;20108;-53
2020/12/07 12:21:48;;;;;;;1.98;0.50;;;;;;;;;;5053699;28;20040;-55
2020/12/07 12:24:14;;;;;;;1.65;0.50;;;;;;;;;;5053166;28;20041;-54
2020/12/07 12:26:40;;;;;;;1.88;0.50;;;;;;;;;;5052525;28;20037;-55
2020/12/07 12:29:07;;;;;;;1.77;0.50;;;;;;;;;;5051944;28;20057;-56
2020/12/07 12:31:33;;;;;;;1.90;0.50;;;;;;;;;;5052462;28;20069;-53
2020/12/07 12:33:59;;;;;;;3.60;0.60;;;;;;;;;;5052927;28;20048;-55
2020/12/07 12:36:26;;;;;;;2.53;0.60;;;;;;;;;;5051963;28;20056;-57
2020/12/07 12:38:52;;;;;;;1.95;0.60;;;;;;;;;;5050818;28;20109;-56
2020/12/07 12:41:18;;;;;;;2.33;0.60;;;;;;;;;;5051688;28;20037;-56
2020/12/07 12:43:45;;;;;;;5.15;1.00;;;;;;;;;;5052466;28;20091;-55
2020/12/07 12:46:11;;;;;;;1.92;0.60;;;;;;;;;;5051709;28;20068;-56
2020/12/07 12:48:37;;;;;;;4.13;0.60;;;;;;;;;;5051055;28;20041;-54
2020/12/07 12:51:03;;;;;;;4.75;0.70;;;;;;;;;;5052850;28;20037;-53
2020/12/07 12:53:29;;;;;;;5.25;0.50;;;;;;;;;;5052369;28;20048;-54
2020/12/07 12:55:56;;;;;;;3.78;0.70;;;;;;;;;;5052826;28;20048;-55
2020/12/07 12:58:22;;;;;;;2.15;0.50;;;;;;;;;;5050195;28;20116;-56
2020/12/07 13:00:48;;;;;;;1.75;0.55;;;;;;;;;;5052075;28;20527;-54
2020/12/07 13:03:14;;;;;;;1.65;0.50;;;;;;;;;;5052039;28;20083;-57
2020/12/07 13:05:40;;;;;;;4.00;0.65;;;;;;;;;;5051673;28;20048;-55
2020/12/07 13:08:06;;;;;;;1.83;0.50;;;;;;;;;;5052385;28;20059;-54
2020/12/07 13:10:32;;;;;;;1.40;0.40;;;;;;;;;;5050271;28;20533;-54
2020/12/07 13:12:58;;;;;;;1.60;0.50;;;;;;;;;;5052115;28;20025;-53
2020/12/07 13:15:25;;;;;;;3.03;0.60;;;;;;;;;;5050062;28;20067;-56
2020/12/07 13:17:56;;;;;;;3.00;0.70;;;;;;;;;;5051009;28;20041;-58
2020/12/07 13:20:30;;;;;;;2.22;0.70;;;;;;;;;;5051253;28;20751;-57
2020/12/07 13:23:05;;;;;;;;;;;;;;;;;;5051453;28;20040;-56
2020/12/07 13:25:42;;;;;;;2.22;0.50;;;;;;;;;;5051353;28;19917;-55
2020/12/07 13:28:15;;;;;;;1.65;0.50;;;;;;;;;;5051136;28;20041;-54
2020/12/07 13:30:41;;;;;;;;;;;;;;;;;;5051604;28;20045;-56
2020/12/07 13:33:07;;;;;;;4.82;0.50;;;;;;;;;;5051754;28;19917;-57
2020/12/07 13:35:33;;;;;;;2.28;0.60;;;;;;;;;;5049739;28;20144;-54
2020/12/07 13:37:59;;;;;;;3.85;0.65;;;;;;;;;;5051802;28;20053;-59
2020/12/07 13:40:25;;;;;;;1.90;0.60;;;;;;;;;;5049340;28;20032;-53
2020/12/07 13:42:51;;;;;;;1.75;0.60;;;;;;;;;;5050489;28;20044;-56
2020/12/07 13:45:17;;;;;;;3.38;0.50;;;;;;;;;;5051074;28;20487;-56
2020/12/07 13:47:43;;;;;;;1.88;0.60;;;;;;;;;;5050529;28;20045;-57
2020/12/07 13:50:09;;;;;;;3.00;0.50;;;;;;;;;;5049690;28;20044;-54
2020/12/07 13:52:35;;;;;;;2.30;0.52;;;;;;;;;;5049594;28;20238;-53
2020/12/07 13:55:01;;;;;;;5.97;0.70;;;;;;;;;;5051932;28;20090;-54
2020/12/07 13:57:27;;;;;;;1.80;0.50;;;;;;;;;;5050279;28;20065;-52
2020/12/07 13:59:55;;;;;;;4.43;0.70;;;;;;;;;;5037662;28;20535;-53
2020/12/07 14:02:21;;;;;;;3.22;0.60;;;;;;;;;;5047918;28;20061;-53
2020/12/07 14:04:53;;;;;;;2.33;0.63;;;;;;;;;;5050130;28;20033;-54
2020/12/07 14:07:19;;;;;;;3.13;0.52;;;;;;;;;;5048439;28;20772;-56
2020/12/07 14:09:45;;;;;;;2.30;0.50;;;;;;;;;;5048295;28;20101;-56
2020/12/07 14:12:10;;;;;;;3.42;0.60;;;;;;;;;;5050519;28;20039;-56
2020/12/07 14:14:36;;;;;;;3.67;0.60;;;;;;;;;;5051090;28;20048;-58
2020/12/07 14:17:07;;;;;;;1.98;0.60;;;;;;;;;;5050083;28;20044;-58
2020/12/07 14:19:48;;;;;;;4.25;0.68;;;;;;;;;;5046830;28;20364;-53
2020/12/07 14:40:52;;;;;;;3.30;0.63;;;;;;;;;;5048683;28;20039;-55
2020/12/07 14:43:18;;;;;;;2.95;0.70;;;;;;;;;;5049017;28;20076;-56
2020/12/07 14:45:57;;;;;;;3.40;0.60;;;;;;;;;;5049558;28;20061;-53
2020/12/07 14:48:24;;;;;;;3.33;0.63;;;;;;;;;;5046728;28;20415;-52
2020/12/07 14:50:54;;;;;;;4.97;0.80;;;;;;;;;;5049273;28;20033;-55
2020/12/07 14:53:27;;;;;;;2.70;0.70;;;;;;;;;;5048675;28;20041;-53
2020/12/07 15:01:21;;;;;;;8.43;0.95;;;;;;;;;;5047351;28;20433;-55
2020/12/07 15:06:39;;;;;;;7.10;1.10;;;;;;;;;;5047645;28;20056;-56
2020/12/07 15:14:15;;;;;;;7.70;1.00;;;;;;;;;;5048897;28;20123;-55
2020/12/07 15:16:40;;;;;;;5.93;1.13;;;;;;;;;;5048904;28;20565;-54
2020/12/07 15:19:06;;;;;;;10.68;1.20;;;;;;;;;;5048865;28;21298;-55
2020/12/07 15:21:32;;;;;;;6.80;1.15;;;;;;;;;;5052819;28;20128;-55
2020/12/07 15:23:58;;;;;;;6.05;1.20;;;;;;;;;;5051905;28;20049;-56
2020/12/07 15:26:24;;;;;;;6.45;1.73;;;;;;;;;;5052814;28;20403;-56
2020/12/07 15:28:50;;;;;;;6.80;1.42;;;;;;;;;;5051070;28;20037;-54
2020/12/07 15:31:16;;;;;;;7.85;1.17;;;;;;;;;;5052794;28;20037;-56
2020/12/07 15:33:42;;;;;;;5.50;1.10;;;;;;;;;;5051044;28;20045;-56
2020/12/07 15:36:09;;;;;;;12.48;1.70;;;;;;;;;;5051002;28;20053;-54
2020/12/07 15:38:41;;;;;;;15.93;1.80;;;;;;;;;;5050832;28;20037;-53
2020/12/07 15:41:08;;;;;;;14.13;1.90;;;;;;;;;;5045559;28;20063;-52
2020/12/07 15:43:34;;;;;;;9.52;1.92;;;;;;;;;;5050396;28;20041;-53
2020/12/07 15:46:00;;;;;;;14.25;1.73;;;;;;;;;;5052809;28;20037;-54
2020/12/07 15:48:26;;;;;;;16.27;2.30;;;;;;;;;;5051077;28;20621;-56
2020/12/07 15:50:52;;;;;;;9.90;1.60;;;;;;;;;;5052162;28;20527;-55